Time;durP1;ratioP1;P1;durP2;ratioP2;P2;SDS_P1;SDS_P2;PMS_P1;PMS_P2;Temp;Humidity;BMP_temperature;BMP_pressure;BME280_temperature;BME280_humidity;BME280_pressure;Samples;Min_cycle;Max_cycle;Signal;HPM_P1;HPM_P2
2022/01/10 00:00:25;;;;;;;15.30;9.30;;;;;;;6.22;77.88;93678.41;5010015;28;20038;-61
2022/01/10 00:02:54;;;;;;;13.82;7.68;;;;;;;6.19;77.93;93676.03;5010128;28;20052;-60
2022/01/10 00:05:21;;;;;;;14.10;8.50;;;;;;;6.07;78.31;93659.78;5010157;28;20045;-61
2022/01/10 00:07:46;;;;;;;13.48;8.40;;;;;;;6.16;78.21;93676.25;5009557;28;20026;-61
2022/01/10 00:10:12;;;;;;;12.80;7.97;;;;;;;6.16;78.57;93673.69;5009747;28;20152;-61
2022/01/10 00:12:38;;;;;;;11.93;8.00;;;;;;;6.10;77.90;93668.97;5009856;28;20124;-59
2022/01/10 00:15:04;;;;;;;12.32;7.70;;;;;;;6.11;78.70;93665.50;5010095;28;20183;-59
2022/01/10 00:17:30;;;;;;;15.05;7.97;;;;;;;6.22;78.62;93683.53;5009862;28;20022;-62
2022/01/10 00:19:55;;;;;;;14.70;8.02;;;;;;;6.24;78.26;93677.34;5009450;28;20079;-60
2022/01/10 00:22:23;;;;;;;11.20;7.70;;;;;;;6.15;78.58;93666.91;5009845;28;20025;-61
2022/01/10 00:24:49;;;;;;;15.77;8.65;;;;;;;6.19;78.96;93679.41;5009647;28;20029;-60
2022/01/10 00:27:14;;;;;;;13.18;8.13;;;;;;;6.20;78.79;93683.63;5009881;28;20029;-62
2022/01/10 00:29:39;;;;;;;12.73;8.02;;;;;;;6.13;78.88;93671.34;5009790;28;20018;-60
2022/01/10 00:32:05;;;;;;;13.57;7.13;;;;;;;6.11;79.17;93679.09;5009316;28;20029;-60
2022/01/10 00:34:31;;;;;;;10.57;6.53;;;;;;;5.97;79.71;93659.56;5009808;28;20048;-60
2022/01/10 00:36:56;;;;;;;12.85;7.47;;;;;;;6.10;79.75;93680.03;5009619;28;20104;-63
2022/01/10 00:39:22;;;;;;;11.52;7.75;;;;;;;6.01;80.08;93667.84;5009525;28;20040;-61
2022/01/10 00:41:47;;;;;;;13.02;8.23;;;;;;;6.06;79.97;93683.72;5009595;28;20026;-59
2022/01/10 00:44:14;;;;;;;13.10;8.25;;;;;;;6.02;80.23;93684.84;5009244;28;20040;-61
2022/01/10 00:46:40;;;;;;;12.20;7.93;;;;;;;6.04;80.62;93676.13;5009475;28;20022;-61
2022/01/10 00:49:05;;;;;;;12.95;7.85;;;;;;;6.04;80.23;93673.59;5009432;28;20018;-59
2022/01/10 00:51:31;;;;;;;12.63;7.88;;;;;;;5.97;80.23;93654.44;5009287;28;20033;-60
2022/01/10 00:53:57;;;;;;;12.10;7.85;;;;;;;5.95;80.16;93640.91;5008789;28;20018;-61
2022/01/10 00:56:24;;;;;;;12.00;6.97;;;;;;;6.06;80.47;93666.63;5008994;28;20117;-61
2022/01/10 00:58:50;;;;;;;10.63;6.75;;;;;;;6.15;80.33;93680.56;5008898;28;20061;-61
2022/01/10 01:01:16;;;;;;;14.20;7.82;;;;;;;6.08;80.67;93671.63;5008998;28;20038;-60
2022/01/10 01:03:42;;;;;;;12.45;8.15;;;;;;;6.03;80.58;93668.56;5008945;28;20030;-60
2022/01/10 01:06:10;;;;;;;11.63;8.80;;;;;;;5.98;81.06;93673.97;5008731;28;20032;-61
2022/01/10 01:08:36;;;;;;;12.57;8.82;;;;;;;5.96;81.22;93672.44;5008600;28;20040;-61
2022/01/10 01:11:26;;;;;;;13.95;9.57;;;;;;;5.91;81.62;93659.13;5008897;28;20034;-66
2022/01/10 01:13:57;;;;;;;13.25;8.63;;;;;;;5.93;81.43;93662.41;5008788;28;20045;-61
2022/01/10 01:17:08;;;;;;;16.25;9.32;;;;;;;5.94;82.11;93664.84;5009075;28;20061;-61
2022/01/10 01:24:29;;;;;;;14.25;8.98;;;;;;;5.92;82.87;93664.16;5009241;28;20585;-61
2022/01/10 01:26:54;;;;;;;19.38;10.07;;;;;;;5.88;82.58;93660.94;5008679;28;20120;-60
2022/01/10 01:29:24;;;;;;;13.32;8.20;;;;;;;5.88;82.70;93660.94;5008496;28;20022;-60
2022/01/10 01:31:50;;;;;;;15.27;9.10;;;;;;;5.92;82.74;93656.47;5007617;28;20034;-61
2022/01/10 01:34:18;;;;;;;11.75;7.45;;;;;;;5.93;82.26;93659.84;5008251;28;20077;-64
2022/01/10 01:36:51;;;;;;;12.20;7.03;;;;;;;5.97;82.11;93653.63;5008712;28;20104;-60
2022/01/10 01:39:22;;;;;;;12.68;7.28;;;;;;;5.91;82.50;93649.72;5008494;28;20080;-60
2022/01/10 01:42:05;;;;;;;10.05;6.53;;;;;;;5.78;82.95;93628.44;5008378;28;20034;-61
2022/01/10 01:44:32;;;;;;;11.02;6.63;;;;;;;5.87;82.83;93645.69;5008244;28;20043;-62
2022/01/10 01:46:57;;;;;;;9.13;5.43;;;;;;;5.66;82.96;93609.59;5008346;28;20053;-61
2022/01/10 01:49:23;;;;;;;10.05;5.75;;;;;;;5.85;83.11;93633.03;5008581;28;20060;-60
2022/01/10 01:51:48;;;;;;;12.65;6.72;;;;;;;5.94;82.90;93638.47;5008499;28;20046;-59
2022/01/10 01:54:14;;;;;;;9.23;5.50;;;;;;;5.98;82.99;93640.72;5007824;28;20537;-60
2022/01/10 01:56:40;;;;;;;8.27;5.50;;;;;;;5.89;82.78;93624.22;5008247;28;20030;-63
2022/01/10 01:59:06;;;;;;;9.55;5.70;;;;;;;5.75;82.93;93601.28;5007852;28;20543;-60
2022/01/10 02:01:32;;;;;;;10.95;5.88;;;;;;;5.97;83.06;93633.97;5008163;28;20049;-63
2022/01/10 02:03:59;;;;;;;10.20;5.88;;;;;;;5.78;82.77;93605.41;5008559;28;20029;-65
2022/01/10 02:06:24;;;;;;;8.65;5.55;;;;;;;5.89;83.53;93626.78;5007679;28;20045;-65
2022/01/10 02:08:50;;;;;;;8.65;5.60;;;;;;;5.83;83.77;93631.50;5007958;28;20418;-64
2022/01/10 02:11:15;;;;;;;9.82;6.20;;;;;;;5.91;83.66;93634.34;5007659;28;20022;-63
2022/01/10 02:13:42;;;;;;;10.13;6.68;;;;;;;5.87;84.03;93635.47;5007762;28;20042;-61
2022/01/10 02:16:10;;;;;;;9.40;6.68;;;;;;;5.85;84.36;93632.19;5007994;28;20069;-61
2022/01/10 02:18:37;;;;;;;9.82;6.70;;;;;;;5.53;85.16;93597.59;5007530;28;20152;-59
2022/01/10 02:21:05;;;;;;;10.18;6.38;;;;;;;5.80;85.68;93640.16;5010102;28;20060;-60
2022/01/10 02:23:32;;;;;;;9.18;7.07;;;;;;;5.80;85.55;93629.94;5011999;28;20042;-60
2022/01/10 02:25:58;;;;;;;10.98;6.47;;;;;;;5.80;85.34;93639.38;5011737;28;20113;-59
2022/01/10 02:28:24;;;;;;;9.60;6.40;;;;;;;5.81;85.74;93630.78;5011617;28;20422;-59
2022/01/10 02:30:57;;;;;;;9.73;5.95;;;;;;;5.88;85.23;93642.22;5010985;28;20029;-60
2022/01/10 02:33:29;;;;;;;10.13;6.45;;;;;;;5.90;84.79;93640.38;5011668;28;20041;-59
2022/01/10 02:36:19;;;;;;;;;;;;;;;5.90;84.81;93640.38;5012113;28;20022;-59
2022/01/10 02:38:52;;;;;;;8.90;6.35;;;;;;;5.86;84.93;93646.63;5011655;28;19960;-61
2022/01/10 02:41:26;;;;;;;9.13;6.28;;;;;;;5.76;84.73;93622.59;5011476;28;20038;-58
2022/01/10 02:43:53;;;;;;;11.02;6.70;;;;;;;5.86;84.84;93646.63;5010977;28;20037;-60
2022/01/10 02:46:18;;;;;;;10.57;7.78;;;;;;;5.82;85.13;93640.06;5011329;28;20022;-63
2022/01/10 02:48:44;;;;;;;10.15;6.40;;;;;;;5.81;84.74;93635.91;5011435;28;20028;-64
2022/01/10 02:51:10;;;;;;;12.48;7.13;;;;;;;5.64;85.41;93629.31;5011285;28;20030;-59
2022/01/10 02:53:35;;;;;;;10.00;7.13;;;;;;;5.76;84.88;93643.06;5011312;28;20038;-63
2022/01/10 02:56:01;;;;;;;11.52;8.07;;;;;;;5.50;85.18;93604.66;5007926;28;20038;-63
2022/01/10 02:58:26;;;;;;;10.93;6.45;;;;;;;5.55;85.04;93607.75;5011038;28;20053;-60
2022/01/10 03:00:51;;;;;;;10.00;6.90;;;;;;;5.69;84.75;93646.00;5010882;28;20030;-61
2022/01/10 03:03:17;;;;;;;11.60;7.13;;;;;;;5.66;85.09;93641.09;5011240;28;20030;-61
2022/01/10 03:05:42;;;;;;;11.23;6.88;;;;;;;5.59;85.31;93637.31;5010889;28;20034;-62
2022/01/10 03:08:08;;;;;;;11.27;6.30;;;;;;;5.70;84.49;93646.81;5010584;28;20108;-60
2022/01/10 03:10:34;;;;;;;11.80;7.10;;;;;;;5.56;84.69;93618.78;5010898;28;20091;-61
2022/01/10 03:13:00;;;;;;;13.20;7.43;;;;;;;5.77;84.35;93654.91;5010684;28;20088;-61
2022/01/10 03:15:26;;;;;;;10.55;7.15;;;;;;;5.71;84.42;93651.84;5010976;28;20535;-61
2022/01/10 03:17:51;;;;;;;11.63;7.57;;;;;;;5.68;84.63;93646.94;5010850;28;20026;-60
2022/01/10 03:20:17;;;;;;;11.35;7.53;;;;;;;5.62;84.49;93628.59;5010683;28;20481;-60
2022/01/10 03:22:42;;;;;;;11.35;6.68;;;;;;;5.74;83.58;93644.88;5010985;28;20037;-60
2022/01/10 03:25:08;;;;;;;9.75;6.47;;;;;;;5.74;83.58;93643.16;5010656;28;20111;-60
2022/01/10 03:27:34;;;;;;;9.30;6.70;;;;;;;5.71;83.89;93639.06;5010726;28;20030;-62
2022/01/10 03:29:59;;;;;;;11.23;6.60;;;;;;;5.77;83.82;93647.25;5010291;28;20095;-60
2022/01/10 03:32:25;;;;;;;9.15;5.68;;;;;;;5.73;83.83;93638.16;5010576;28;20080;-59
2022/01/10 03:34:51;;;;;;;11.10;7.70;;;;;;;5.73;83.43;93630.47;5010491;28;20037;-60
2022/01/10 03:37:16;;;;;;;10.88;6.80;;;;;;;5.80;83.48;93647.03;5010624;28;20038;-59
2022/01/10 03:39:42;;;;;;;9.57;6.10;;;;;;;5.85;83.15;93650.09;5010507;28;20029;-60
2022/01/10 03:42:07;;;;;;;9.90;6.72;;;;;;;5.81;83.59;93649.50;5009711;28;20037;-60
2022/01/10 03:44:33;;;;;;;8.90;5.57;;;;;;;5.85;83.05;93647.53;5010624;28;20030;-59
2022/01/10 03:46:58;;;;;;;8.68;6.43;;;;;;;5.76;83.10;93654.09;5010192;28;20057;-60
2022/01/10 03:49:25;;;;;;;10.55;6.53;;;;;;;5.50;83.35;93620.00;5010298;28;20087;-62
2022/01/10 03:51:50;;;;;;;9.13;5.82;;;;;;;5.72;83.01;93655.22;5010189;28;20120;-61
2022/01/10 03:54:16;;;;;;;8.73;5.78;;;;;;;5.64;83.21;93652.34;5009689;28;20107;-62
2022/01/10 03:56:41;;;;;;;10.23;6.10;;;;;;;5.64;83.24;93658.28;5009972;28;20126;-61
2022/01/10 03:59:07;;;;;;;9.77;6.80;;;;;;;5.64;83.19;93657.44;5010164;28;20179;-62
2022/01/10 04:01:35;;;;;;;8.40;5.40;;;;;;;5.73;83.01;93661.16;5010249;28;20030;-61
2022/01/10 04:04:00;;;;;;;9.23;6.03;;;;;;;5.73;82.56;93664.53;5010306;28;20129;-59
2022/01/10 04:06:26;;;;;;;8.73;6.47;;;;;;;5.69;82.66;93663.91;5009719;28;20034;-60
2022/01/10 04:08:51;;;;;;;8.43;6.18;;;;;;;5.69;82.85;93661.38;5010141;28;20030;-60
2022/01/10 04:11:17;;;;;;;9.43;6.47;;;;;;;5.67;82.63;93657.25;5009961;28;20487;-60
2022/01/10 04:13:42;;;;;;;10.70;6.13;;;;;;;5.51;82.70;93639.56;5009561;28;20386;-59
2022/01/10 04:16:08;;;;;;;10.65;5.90;;;;;;;5.62;82.55;93654.19;5009900;28;20033;-59
2022/01/10 04:18:33;;;;;;;8.20;5.55;;;;;;;5.69;83.04;93670.78;5041127;28;20030;-61
2022/01/10 04:20:59;;;;;;;8.45;5.50;;;;;;;5.65;83.07;93669.34;5009855;28;20350;-58
2022/01/10 04:23:25;;;;;;;8.13;5.50;;;;;;;5.66;83.93;93676.91;5009958;28;20026;-61
2022/01/10 04:25:51;;;;;;;8.23;5.00;;;;;;;5.67;83.52;93675.16;5009547;28;20130;-60
2022/01/10 04:28:16;;;;;;;6.78;4.63;;;;;;;5.65;82.97;93677.00;5009451;28;20087;-62
2022/01/10 04:30:42;;;;;;;9.68;4.88;;;;;;;5.66;83.30;93682.03;5009021;28;20044;-60
2022/01/10 04:33:09;;;;;;;9.80;5.28;;;;;;;5.67;83.44;93691.34;5009395;28;20063;-61
2022/01/10 04:35:35;;;;;;;8.05;4.72;;;;;;;5.71;83.52;93697.88;5009724;28;20029;-60
2022/01/10 04:38:00;;;;;;;8.02;4.82;;;;;;;5.54;84.30;93687.91;5009507;28;20029;-60
2022/01/10 04:40:27;;;;;;;6.47;4.50;;;;;;;5.65;84.40;93700.84;5009439;28;20038;-60
2022/01/10 04:42:53;;;;;;;9.02;5.43;;;;;;;5.67;84.20;93699.00;5008554;28;20026;-59
2022/01/10 04:45:19;;;;;;;7.47;4.90;;;;;;;5.61;83.86;93689.19;5009547;28;20648;-62
2022/01/10 04:47:44;;;;;;;8.68;5.85;;;;;;;5.64;83.98;93699.22;5009069;28;20026;-60
2022/01/10 04:50:34;;;;;;;8.27;4.72;;;;;;;5.62;84.44;93703.59;5008775;28;20024;-60
2022/01/10 04:52:55;;;;;;;8.35;5.82;;;;;;;5.58;83.97;93703.91;5008516;28;20034;-60
2022/01/10 04:55:21;;;;;;;7.80;5.47;;;;;;;5.57;84.13;93708.19;5008768;28;20036;-61
2022/01/10 04:57:46;;;;;;;8.30;5.25;;;;;;;5.61;83.57;93709.63;5008950;28;20088;-62
2022/01/10 05:00:14;;;;;;;8.43;5.15;;;;;;;5.62;83.33;93713.81;5008852;28;20087;-61
2022/01/10 05:02:45;;;;;;;8.75;6.25;;;;;;;5.67;83.22;93719.47;5009078;28;20026;-60
2022/01/10 05:05:11;;;;;;;8.85;5.47;;;;;;;5.48;82.92;93689.16;5008944;28;20397;-60
2022/01/10 05:07:36;;;;;;;9.70;5.95;;;;;;;5.71;82.32;93714.97;5008577;28;20036;-61
2022/01/10 05:10:03;;;;;;;8.57;5.50;;;;;;;5.75;81.69;93718.16;5040272;28;20037;-62
2022/01/10 05:12:29;;;;;;;8.27;5.38;;;;;;;5.68;81.87;93713.41;5008959;28;20802;-59
2022/01/10 05:14:54;;;;;;;9.25;6.32;;;;;;;5.67;82.05;93710.97;5008812;28;20026;-60
2022/01/10 05:17:22;;;;;;;9.50;6.65;;;;;;;5.72;81.96;93726.81;5008978;28;20115;-59
2022/01/10 05:19:48;;;;;;;9.57;5.95;;;;;;;5.38;82.31;93671.91;5008358;28;20041;-60
2022/01/10 05:22:13;;;;;;;9.50;5.72;;;;;;;5.76;81.97;93722.34;5008752;28;20033;-60
2022/01/10 05:24:39;;;;;;;12.07;6.70;;;;;;;5.43;82.26;93682.69;5004258;28;20501;-59
2022/01/10 05:27:05;;;;;;;11.23;7.35;;;;;;;5.72;81.92;93731.94;4989111;28;20398;-61
2022/01/10 05:29:30;;;;;;;10.23;6.55;;;;;;;5.66;81.94;93730.63;4995773;28;20029;-59
2022/01/10 05:31:56;;;;;;;9.35;6.57;;;;;;;5.47;82.61;93712.25;5007278;28;20535;-59
2022/01/10 05:34:22;;;;;;;10.18;6.85;;;;;;;5.64;82.69;93734.16;5008838;28;20026;-59
2022/01/10 05:36:48;;;;;;;12.45;6.82;;;;;;;5.62;82.02;93747.06;5008494;28;20084;-59
2022/01/10 05:39:13;;;;;;;10.70;6.60;;;;;;;5.45;82.80;93714.09;5008364;28;20599;-59
2022/01/10 05:41:39;;;;;;;10.25;6.97;;;;;;;5.56;82.98;93747.47;5008575;28;20038;-60
2022/01/10 05:44:05;;;;;;;9.82;6.82;;;;;;;5.23;83.08;93710.34;5008020;28;20033;-59
2022/01/10 05:46:34;;;;;;;11.07;7.10;;;;;;;5.41;83.74;93754.38;5008553;28;20081;-61
2022/01/10 05:49:01;;;;;;;11.40;7.60;;;;;;;5.28;84.31;93738.16;5008709;28;20125;-60
2022/01/10 05:51:37;;;;;;;12.38;7.53;;;;;;;5.28;84.34;93733.88;5008362;28;20030;-62
2022/01/10 05:54:04;;;;;;;10.93;8.18;;;;;;;5.35;84.44;93752.19;5039805;28;20080;-61
2022/01/10 05:56:30;;;;;;;11.75;8.00;;;;;;;5.18;84.47;93721.75;5011101;28;20018;-59
2022/01/10 05:58:56;;;;;;;10.82;7.78;;;;;;;5.41;84.09;93753.53;5012297;28;20017;-60
2022/01/10 06:01:22;;;;;;;11.45;7.40;;;;;;;5.31;83.72;93733.69;5012092;28;20092;-60
2022/01/10 06:03:47;;;;;;;10.18;7.95;;;;;;;5.44;83.84;93766.13;5012315;28;20026;-59
2022/01/10 06:06:13;;;;;;;11.13;7.85;;;;;;;5.35;83.72;93741.97;5011718;28;20567;-61
2022/01/10 06:08:38;;;;;;;10.90;7.68;;;;;;;4.74;83.89;93647.81;5012540;28;20121;-59
2022/01/10 06:11:04;;;;;;;10.77;7.78;;;;;;;5.38;84.30;93749.47;5012212;28;20088;-60
2022/01/10 06:13:29;;;;;;;10.82;7.82;;;;;;;5.40;83.13;93742.50;5012500;28;20037;-61
2022/01/10 06:15:56;;;;;;;13.25;8.70;;;;;;;5.50;83.14;93768.31;5011982;28;20473;-61
2022/01/10 06:18:22;;;;;;;13.32;8.05;;;;;;;5.47;83.60;93771.88;5011442;28;20068;-60
2022/01/10 06:20:47;;;;;;;13.68;9.07;;;;;;;5.49;83.52;93772.63;5043359;28;20069;-61
2022/01/10 06:23:13;;;;;;;11.20;7.68;;;;;;;5.30;83.79;93728.66;5011389;28;20044;-60
2022/01/10 06:25:39;;;;;;;13.18;8.77;;;;;;;5.53;83.69;93784.28;5011568;28;20072;-60
2022/01/10 06:28:06;;;;;;;13.00;8.40;;;;;;;5.23;83.59;93735.91;5011149;28;20083;-61
2022/01/10 06:30:31;;;;;;;13.85;8.40;;;;;;;5.49;83.11;93782.00;5008568;28;20077;-59
2022/01/10 06:32:57;;;;;;;12.77;8.68;;;;;;;5.36;83.85;93758.94;5010762;28;20037;-60
2022/01/10 06:35:23;;;;;;;13.18;8.25;;;;;;;4.91;83.11;93685.06;5011451;28;20116;-60
2022/01/10 06:37:50;;;;;;;16.65;7.22;;;;;;;5.56;82.75;93785.00;5008970;28;20087;-60
2022/01/10 06:40:15;;;;;;;14.15;8.27;;;;;;;5.57;82.56;93784.91;5010308;28;20030;-61
2022/01/10 06:42:41;;;;;;;20.45;8.98;;;;;;;5.56;82.73;93783.28;5011103;28;20026;-61
2022/01/10 06:45:08;;;;;;;11.73;8.55;;;;;;;5.41;81.73;93756.94;5009141;28;20088;-59
2022/01/10 06:47:33;;;;;;;13.88;7.75;;;;;;;5.50;82.10;93779.34;5011332;28;20036;-60
2022/01/10 06:49:59;;;;;;;11.32;7.53;;;;;;;5.48;82.34;93781.19;5016714;28;20022;-64
2022/01/10 06:52:25;;;;;;;13.82;8.77;;;;;;;5.51;81.99;93795.53;5013543;28;20619;-66
2022/01/10 06:54:50;;;;;;;11.95;8.57;;;;;;;5.31;82.65;93766.91;5006210;28;20255;-60
2022/01/10 06:57:16;;;;;;;14.95;9.32;;;;;;;5.55;82.34;93796.16;5007791;28;20050;-63
2022/01/10 06:59:41;;;;;;;11.82;8.43;;;;;;;5.65;81.63;93789.53;5007617;28;20025;-62
2022/01/10 07:02:07;;;;;;;14.20;9.27;;;;;;;5.29;81.26;93735.50;5007615;28;20033;-63
2022/01/10 07:04:32;;;;;;;15.93;7.63;;;;;;;5.35;81.39;93739.41;5007562;28;20041;-62
2022/01/10 07:06:59;;;;;;;14.52;8.02;;;;;;;5.58;81.07;93775.50;5007200;28;20112;-62
2022/01/10 07:09:24;;;;;;;14.13;8.25;;;;;;;5.51;80.89;93764.84;5006453;28;20026;-60
2022/01/10 07:11:50;;;;;;;10.90;7.65;;;;;;;5.41;80.49;93745.88;5007001;28;20929;-63
2022/01/10 07:14:17;;;;;;;17.10;8.45;;;;;;;5.56;80.53;93772.19;5007298;28;20182;-63
2022/01/10 07:16:43;;;;;;;13.80;7.75;;;;;;;5.87;80.46;93817.13;5038021;28;20022;-65
2022/01/10 07:19:08;;;;;;;14.80;8.07;;;;;;;5.85;80.02;93801.88;5004421;28;20026;-69
2022/01/10 07:21:38;;;;;;;11.77;8.35;;;;;;;5.66;80.10;93773.28;5007187;28;20045;-62
2022/01/10 07:24:04;;;;;;;13.40;7.95;;;;;;;5.97;79.64;93815.66;5005378;28;20034;-68
2022/01/10 07:26:32;;;;;;;16.00;8.18;;;;;;;6.01;79.66;93806.84;5005904;28;20096;-66
2022/01/10 07:28:57;;;;;;;11.85;7.90;;;;;;;6.02;79.71;93821.31;5006392;28;20045;-64
2022/01/10 07:31:23;;;;;;;12.30;8.25;;;;;;;6.09;79.63;93831.16;5003284;28;20129;-64
2022/01/10 07:33:48;;;;;;;17.20;9.80;;;;;;;6.20;79.51;93823.59;5006824;28;20030;-63
2022/01/10 07:36:14;;;;;;;20.25;12.43;;;;;;;6.10;78.84;93823.38;5006647;28;20477;-62
2022/01/10 07:38:39;;;;;;;22.90;13.65;;;;;;;5.42;79.07;93781.56;5006246;28;20029;-64
2022/01/10 07:41:06;;;;;;;22.67;14.57;;;;;;;5.41;79.90;93820.84;5006254;28;20469;-63
2022/01/10 07:43:33;;;;;;;22.70;15.27;;;;;;;5.50;80.83;93847.56;5006148;28;20049;-67
2022/01/10 07:45:59;;;;;;;21.48;15.15;;;;;;;5.50;81.09;93845.03;5006486;28;20026;-65
2022/01/10 07:48:27;;;;;;;25.30;16.38;;;;;;;5.67;80.69;93857.59;5003250;28;20399;-63
2022/01/10 07:50:53;;;;;;;25.08;15.65;;;;;;;5.51;80.10;93832.13;5005562;28;20191;-62
2022/01/10 07:53:18;;;;;;;27.38;18.13;;;;;;;5.60;80.28;93855.50;5005948;28;20060;-61
2022/01/10 07:55:44;;;;;;;25.52;16.30;;;;;;;5.56;79.91;93862.53;5005660;28;20037;-62
2022/01/10 07:58:10;;;;;;;25.35;16.60;;;;;;;5.57;79.51;93853.94;5009040;28;20050;-60
2022/01/10 08:00:36;;;;;;;22.77;15.75;;;;;;;5.30;78.81;93831.72;5008059;28;20405;-63
2022/01/10 08:03:01;;;;;;;19.33;13.27;;;;;;;5.34;78.66;93835.75;5007647;28;20122;-63
2022/01/10 08:05:27;;;;;;;20.60;14.82;;;;;;;5.42;78.33;93852.34;5009089;28;20037;-60
2022/01/10 08:07:52;;;;;;;22.15;14.70;;;;;;;5.31;78.66;93852.97;5002974;28;20148;-61
2022/01/10 08:10:18;;;;;;;21.35;14.27;;;;;;;5.37;78.10;93847.50;4990384;28;20027;-65
2022/01/10 08:12:43;;;;;;;20.50;13.55;;;;;;;5.47;77.43;93845.19;4990138;28;20033;-66
2022/01/10 08:15:09;;;;;;;21.75;13.63;;;;;;;5.52;76.97;93848.28;4989701;28;20686;-63
2022/01/10 08:17:35;;;;;;;19.15;12.88;;;;;;;5.27;75.77;93808.91;4989408;28;20397;-60
2022/01/10 08:20:01;;;;;;;17.60;11.40;;;;;;;5.13;74.42;93780.81;4989351;28;20037;-62
2022/01/10 08:22:27;;;;;;;18.02;11.07;;;;;;;5.43;74.26;93844.56;4989801;28;20022;-63
2022/01/10 08:24:53;;;;;;;16.50;10.68;;;;;;;5.52;73.43;93853.41;4990106;28;20157;-63
2022/01/10 08:27:18;;;;;;;13.77;10.05;;;;;;;5.28;73.88;93808.00;4990020;28;20037;-61
2022/01/10 08:29:44;;;;;;;14.73;9.30;;;;;;;5.38;72.76;93832.97;4989975;28;20023;-70
2022/01/10 08:32:11;;;;;;;12.60;8.45;;;;;;;5.73;71.86;93868.34;4989899;28;20496;-65
2022/01/10 08:34:37;;;;;;;16.60;10.85;;;;;;;5.38;73.01;93828.72;4990139;28;20027;-58
2022/01/10 08:37:02;;;;;;;11.77;8.32;;;;;;;5.53;72.71;93863.53;4990041;28;20084;-60
2022/01/10 08:39:28;;;;;;;13.25;8.32;;;;;;;5.31;73.13;93851.28;5005123;28;20109;-59
2022/01/10 08:41:53;;;;;;;12.00;8.55;;;;;;;5.30;73.16;93854.72;5009514;28;20026;-62
2022/01/10 08:44:19;;;;;;;13.98;8.82;;;;;;;5.32;73.22;93858.00;5008810;28;20529;-61
2022/01/10 08:46:45;;;;;;;15.20;9.52;;;;;;;5.28;73.14;93865.94;5008829;28;20022;-60
2022/01/10 08:49:12;;;;;;;14.80;9.63;;;;;;;5.23;73.50;93858.59;5008958;28;20030;-61
2022/01/10 08:51:39;;;;;;;15.13;10.73;;;;;;;5.19;73.61;93859.66;5008957;28;20030;-62
2022/01/10 08:54:05;;;;;;;17.45;10.55;;;;;;;5.15;73.88;93843.69;5008016;28;20546;-60
2022/01/10 08:56:32;;;;;;;20.75;12.70;;;;;;;5.25;73.51;93850.81;5008574;28;20030;-60
2022/01/10 08:58:58;;;;;;;14.20;8.70;;;;;;;5.36;72.70;93875.72;5008559;28;20080;-65
2022/01/10 09:01:24;;;;;;;18.02;10.30;;;;;;;5.27;73.27;93862.59;5008869;28;20398;-60
2022/01/10 09:03:50;;;;;;;18.08;10.52;;;;;;;5.31;73.46;93864.06;5008834;28;20032;-60
2022/01/10 09:06:17;;;;;;;11.50;7.40;;;;;;;5.36;73.78;93873.16;5008164;28;20022;-61
2022/01/10 09:08:46;;;;;;;14.82;9.15;;;;;;;5.46;73.99;93874.22;4999108;28;20504;-66
2022/01/10 09:11:12;;;;;;;10.68;7.68;;;;;;;5.07;74.01;93839.97;4989152;28;20026;-60
2022/01/10 09:13:37;;;;;;;13.00;7.25;;;;;;;5.14;74.85;93867.59;4988902;28;20030;-64
2022/01/10 09:16:04;;;;;;;14.05;8.05;;;;;;;5.02;75.28;93875.19;4988924;28;20026;-63
2022/01/10 09:18:30;;;;;;;11.07;7.32;;;;;;;5.11;74.32;93849.09;4988672;28;20034;-60
2022/01/10 09:20:55;;;;;;;11.60;8.05;;;;;;;5.35;73.81;93872.34;4988894;28;20383;-61
2022/01/10 09:23:24;;;;;;;13.10;8.35;;;;;;;5.34;74.44;93879.22;4988880;28;20083;-60
2022/01/10 09:25:51;;;;;;;12.48;7.50;;;;;;;5.47;74.51;93869.03;4988851;28;20026;-59
2022/01/10 09:28:17;;;;;;;15.68;9.02;;;;;;;5.33;74.52;93839.22;4988687;28;20041;-60
2022/01/10 09:30:43;;;;;;;13.27;9.02;;;;;;;5.50;74.20;93868.84;4988372;28;20030;-60
2022/01/10 09:33:08;;;;;;;14.32;8.10;;;;;;;5.67;73.00;93872.09;4988780;28;20414;-63
2022/01/10 09:35:34;;;;;;;15.02;9.98;;;;;;;5.52;73.58;93863.63;4988794;28;20083;-64
2022/01/10 09:38:00;;;;;;;13.95;7.88;;;;;;;5.57;73.38;93841.16;4988557;28;20030;-65
2022/01/10 09:40:25;;;;;;;14.52;8.57;;;;;;;5.80;73.18;93865.28;4988686;28;20022;-61
2022/01/10 09:42:51;;;;;;;21.25;9.48;;;;;;;5.76;72.55;93876.66;5003469;28;20030;-63
2022/01/10 09:45:17;;;;;;;18.45;10.77;;;;;;;5.85;71.67;93865.84;5007964;28;20095;-62
2022/01/10 09:47:42;;;;;;;14.45;9.98;;;;;;;5.68;71.19;93846.41;5008106;28;20030;-63
2022/01/10 09:50:09;;;;;;;14.95;10.73;;;;;;;5.51;71.65;93844.13;5008266;28;20049;-63
2022/01/10 09:52:37;;;;;;;19.65;12.90;;;;;;;5.54;71.29;93851.56;5006628;28;20040;-62
2022/01/10 09:55:03;;;;;;;14.18;10.30;;;;;;;5.28;70.75;93792.66;4987886;28;20042;-61
2022/01/10 09:57:29;;;;;;;18.48;10.38;;;;;;;5.97;70.75;93874.50;4988397;28;20528;-63
2022/01/10 09:59:54;;;;;;;20.95;11.98;;;;;;;6.05;70.81;93874.00;4988428;28;20038;-62
2022/01/10 10:02:20;;;;;;;15.80;9.35;;;;;;;6.14;70.20;93880.31;4987855;28;20035;-62
2022/01/10 10:04:46;;;;;;;15.35;8.57;;;;;;;6.17;70.00;93875.00;4988312;28;20038;-62
2022/01/10 10:07:13;;;;;;;15.77;9.20;;;;;;;6.17;70.12;93872.44;4987597;28;20022;-63
2022/01/10 10:09:39;;;;;;;15.27;10.63;;;;;;;6.09;70.81;93877.22;5004996;28;20030;-61
2022/01/10 10:12:05;;;;;;;16.25;9.55;;;;;;;5.45;72.53;93786.50;5007276;28;20026;-63
2022/01/10 10:14:31;;;;;;;21.00;13.65;;;;;;;5.37;73.10;93829.59;5007191;28;20515;-64
2022/01/10 10:17:06;;;;;;;15.48;10.02;;;;;;;5.59;74.39;93867.47;5007191;28;20056;-62
2022/01/10 10:19:31;;;;;;;15.30;11.43;;;;;;;5.49;75.20;93866.38;5007347;28;20148;-61
2022/01/10 10:21:58;;;;;;;14.30;9.25;;;;;;;5.25;75.20;93836.31;5007941;28;20179;-62
2022/01/10 10:24:24;;;;;;;15.32;10.13;;;;;;;5.24;75.23;93846.63;4992277;28;20084;-62
2022/01/10 10:26:51;;;;;;;12.52;8.10;;;;;;;5.21;75.68;93847.59;4988253;28;20030;-61
2022/01/10 10:29:18;;;;;;;15.35;9.85;;;;;;;5.40;75.57;93872.06;4987924;28;20030;-63
2022/01/10 10:31:55;;;;;;;19.48;13.15;;;;;;;5.56;75.96;93874.50;4995604;28;20102;-62
2022/01/10 10:34:27;;;;;;;16.58;11.40;;;;;;;5.52;75.98;93868.75;5007429;28;20038;-62
2022/01/10 10:37:19;;;;;;;16.17;11.07;;;;;;;5.41;76.29;93838.75;5007426;28;20037;-60
2022/01/10 10:39:45;;;;;;;20.85;14.00;;;;;;;5.51;77.52;93870.50;4987555;28;20105;-62
2022/01/10 10:42:13;;;;;;;28.25;18.95;;;;;;;5.33;77.78;93841.75;4989526;28;20030;-65
2022/01/10 10:44:39;;;;;;;18.23;13.18;;;;;;;5.46;77.45;93871.69;4992039;28;20027;-65
2022/01/10 10:47:05;;;;;;;17.42;12.63;;;;;;;4.97;78.12;93817.53;4991622;28;20022;-61
2022/01/10 10:49:38;;;;;;;15.75;11.50;;;;;;;5.33;78.69;93871.63;4991296;28;20528;-63
2022/01/10 10:52:06;;;;;;;15.57;11.73;;;;;;;5.31;78.41;93876.84;4991243;28;20029;-66
2022/01/10 10:54:33;;;;;;;17.83;11.90;;;;;;;5.22;78.39;93840.78;4990826;28;20034;-62
2022/01/10 10:57:04;;;;;;;22.08;14.27;;;;;;;5.31;78.90;93876.84;4999322;28;20088;-64
2022/01/10 10:59:32;;;;;;;23.75;12.93;;;;;;;5.21;78.49;93849.34;5006695;28;20124;-61
2022/01/10 11:01:58;;;;;;;18.20;11.40;;;;;;;5.36;78.46;93868.84;5007766;28;20452;-61
2022/01/10 11:04:25;;;;;;;17.05;11.10;;;;;;;5.37;78.80;93880.75;5007977;28;20042;-67
2022/01/10 11:06:51;;;;;;;16.20;10.98;;;;;;;5.30;78.45;93874.38;5009874;28;20468;-65
2022/01/10 11:09:18;;;;;;;14.73;9.45;;;;;;;5.29;77.80;93883.75;4996294;28;20062;-65
2022/01/10 11:11:45;;;;;;;16.40;10.63;;;;;;;4.89;78.06;93850.38;4990598;28;20046;-63
2022/01/10 11:14:14;;;;;;;16.38;9.35;;;;;;;5.08;78.37;93869.72;4990085;28;20057;-63
2022/01/10 11:16:42;;;;;;;18.52;11.48;;;;;;;5.14;78.37;93900.03;4990515;28;20035;-64
2022/01/10 11:19:15;;;;;;;13.85;8.98;;;;;;;5.00;78.91;93877.00;4990058;28;20168;-64
2022/01/10 11:21:45;;;;;;;16.88;9.75;;;;;;;4.96;79.14;93878.94;4990713;28;20050;-64
2022/01/10 11:24:10;;;;;;;15.30;9.07;;;;;;;4.87;78.87;93885.41;5003755;28;20034;-64
2022/01/10 11:26:40;;;;;;;11.70;6.45;;;;;;;4.91;78.51;93896.28;5010270;28;20026;-62
2022/01/10 11:29:09;;;;;;;10.70;6.32;;;;;;;4.86;77.88;93899.09;5009999;28;20398;-63
2022/01/10 11:31:40;;;;;;;13.35;7.25;;;;;;;4.91;78.32;93901.38;5009514;28;20026;-63
2022/01/10 11:34:05;;;;;;;15.65;8.30;;;;;;;4.54;78.72;93855.84;5009935;28;20034;-65
2022/01/10 11:36:31;;;;;;;39.70;10.75;;;;;;;4.87;78.23;93899.91;5009801;28;20026;-63